Time;durP1;ratioP1;P1;durP2;ratioP2;P2;SDS_P1;SDS_P2;PMS_P1;PMS_P2;Temp;Humidity;BMP_temperature;BMP_pressure;BME280_temperature;BME280_humidity;BME280_pressure;Samples;Min_cycle;Max_cycle;Signal;HPM_P1;HPM_P2
2022/06/12 12:59:06;;;;;;;;;7.33;7.00;;;;;;;;5170541;27;77858;-74
2022/06/12 13:01:50;;;;;;;;;6.75;6.75;;;;;;;;5150019;27;20905;-74
2022/06/12 13:04:18;;;;;;;;;7.00;6.50;;;;;;;;5147307;27;11475;-73
2022/06/12 13:06:46;;;;;;;;;8.75;6.75;;;;;;;;5145187;27;11382;-74
2022/06/12 13:09:17;;;;;;;;;6.75;6.00;;;;;;;;5143711;27;11549;-75
2022/06/12 13:11:51;;;;;;;;;7.00;7.00;;;;;;;;5154320;27;12864;-76
2022/06/12 13:14:29;;;;;;;;;6.00;6.00;;;;;;;;5154618;27;10611;-79
2022/06/12 13:17:00;;;;;;;;;6.00;6.00;;;;;;;;5155976;27;9734;-79
2022/06/12 13:19:25;;;;;;;;;6.50;6.25;;;;;;;;5157282;27;9557;-77
2022/06/12 13:21:50;;;;;;;;;5.00;5.00;;;;;;;;5156671;27;8934;-78
2022/06/12 13:24:30;;;;;;;;;4.33;4.33;;;;;;;;5156053;27;11363;-75
2022/06/12 13:26:56;;;;;;;;;4.00;4.00;;;;;;;;5155361;27;11537;-77
2022/06/12 13:29:23;;;;;;;;;5.00;5.00;;;;;;;;5155056;27;10769;-77
2022/06/12 13:31:56;;;;;;;;;4.75;4.75;;;;;;;;5156024;27;8776;-78
2022/06/12 13:34:21;;;;;;;;;3.00;3.00;;;;;;;;5155773;27;11574;-77
2022/06/12 13:36:47;;;;;;;;;5.00;4.33;;;;;;;;5156772;27;12449;-83
2022/06/12 13:39:20;;;;;;;;;4.67;4.67;;;;;;;;5156632;27;11543;-77
2022/06/12 13:41:52;;;;;;;;;5.25;5.00;;;;;;;;5155075;27;12084;-78
2022/06/12 13:44:23;;;;;;;;;5.75;5.75;;;;;;;;5155420;27;11445;-78
2022/06/12 13:46:48;;;;;;;;;5.50;5.00;;;;;;;;5155793;27;9061;-78
2022/06/12 13:49:24;;;;;;;;;4.00;4.00;;;;;;;;5155305;27;9481;-80
2022/06/12 13:51:54;;;;;;;;;6.00;6.00;;;;;;;;5156216;27;11591;-78
2022/06/12 13:54:25;;;;;;;;;5.25;5.25;;;;;;;;5155455;27;9075;-78
2022/06/12 13:56:52;;;;;;;;;3.00;3.00;;;;;;;;5155508;27;11369;-77
2022/06/12 13:59:20;;;;;;;;;5.25;5.25;;;;;;;;5155882;27;11522;-78
2022/06/12 14:01:46;;;;;;;;;7.00;6.00;;;;;;;;5155315;27;11381;-78
2022/06/12 14:04:21;;;;;;;;;6.25;5.00;;;;;;;;5155044;27;11432;-75
2022/06/12 14:06:47;;;;;;;;;6.00;6.00;;;;;;;;5155399;27;10414;-76
2022/06/12 14:09:15;;;;;;;;;4.33;4.33;;;;;;;;5148130;27;9912;-75
2022/06/12 14:11:40;;;;;;;;;5.25;5.00;;;;;;;;5141413;27;11387;-79
2022/06/12 14:14:35;;;;;;;;;5.67;5.67;;;;;;;;5141269;27;11538;-75
2022/06/12 14:17:01;;;;;;;;;4.00;4.00;;;;;;;;5077115;28;10073;-75
2022/06/12 14:19:30;;;;;;;;;3.75;3.75;;;;;;;;5077656;28;11464;-76
2022/06/12 14:22:22;;;;;;;;;4.25;4.25;;;;;;;;5077476;28;11928;-76
2022/06/12 14:25:07;;;;;;;;;5.75;5.75;;;;;;;;5077327;28;10595;-73
2022/06/12 14:27:39;;;;;;;;;7.00;7.00;;;;;;;;5107165;27;10436;-73
2022/06/12 14:30:06;;;;;;;;;9.25;8.00;;;;;;;;5141676;27;11362;-73
2022/06/12 14:32:43;;;;;;;;;7.75;7.75;;;;;;;;5140863;27;10577;-74
2022/06/12 14:35:08;;;;;;;;;7.00;6.00;;;;;;;;5141279;27;11943;-73
2022/06/12 14:37:37;;;;;;;;;7.00;7.00;;;;;;;;5141679;27;10612;-75
2022/06/12 14:40:23;;;;;;;;;6.25;6.25;;;;;;;;5139801;27;9963;-75
2022/06/12 14:43:07;;;;;;;;;6.25;5.75;;;;;;;;5130138;27;11439;-74
2022/06/12 14:45:33;;;;;;;;;8.00;7.00;;;;;;;;5141232;27;9567;-75
2022/06/12 14:47:58;;;;;;;;;7.00;7.00;;;;;;;;5140957;27;11325;-74
2022/06/12 14:50:23;;;;;;;;;7.33;6.33;;;;;;;;5129365;27;8820;-75
2022/06/12 14:52:49;;;;;;;;;7.67;7.67;;;;;;;;5120726;28;10479;-75
2022/06/12 14:55:14;;;;;;;;;7.00;7.00;;;;;;;;5121035;27;10246;-75
2022/06/12 14:57:41;;;;;;;;;10.00;9.00;;;;;;;;5119995;27;8834;-75
2022/06/12 15:00:18;;;;;;;;;7.00;7.00;;;;;;;;5120039;27;21475;-78
2022/06/12 15:02:44;;;;;;;;;8.25;8.25;;;;;;;;5118064;28;21914;-74
2022/06/12 15:05:15;;;;;;;;;6.00;6.00;;;;;;;;5120142;27;11307;-76
2022/06/12 15:07:41;;;;;;;;;6.00;5.00;;;;;;;;5124842;27;13598;-79
2022/06/12 15:10:06;;;;;;;;;7.00;7.00;;;;;;;;5136577;27;8784;-75
2022/06/12 15:12:32;;;;;;;;;6.33;6.00;;;;;;;;5127199;27;8883;-73
2022/06/12 15:14:57;;;;;;;;;8.67;8.67;;;;;;;;5129985;27;10274;-73
2022/06/12 15:17:23;;;;;;;;;7.00;7.00;;;;;;;;5128163;27;11593;-73
2022/06/12 15:19:49;;;;;;;;;5.00;5.00;;;;;;;;5127777;27;12476;-73
2022/06/12 15:22:15;;;;;;;;;7.75;7.75;;;;;;;;5126955;27;9039;-73
2022/06/12 15:24:41;;;;;;;;;5.75;5.75;;;;;;;;5126777;27;11422;-73
2022/06/12 15:29:54;;;;;;;;;7.75;7.00;;;;;;;;5130185;27;10303;-75
2022/06/12 15:32:21;;;;;;;;;5.00;5.00;;;;;;;;5128382;27;11337;-74
2022/06/12 15:34:47;;;;;;;;;6.00;6.00;;;;;;;;5127754;27;10643;-74
2022/06/12 15:37:12;;;;;;;;;5.67;5.67;;;;;;;;5127644;27;10582;-74
2022/06/12 15:39:38;;;;;;;;;8.67;7.00;;;;;;;;5127766;27;11789;-72
2022/06/12 15:42:03;;;;;;;;;9.00;7.33;;;;;;;;5135258;27;11445;-74
2022/06/12 15:44:29;;;;;;;;;7.67;7.00;;;;;;;;5139339;27;11715;-76
2022/06/12 15:46:54;;;;;;;;;10.33;8.00;;;;;;;;5139611;27;11413;-77
2022/06/12 15:49:20;;;;;;;;;6.00;6.00;;;;;;;;5138207;27;21394;-75
2022/06/12 15:51:46;;;;;;;;;7.00;7.00;;;;;;;;5140297;27;21328;-79
2022/06/12 15:54:16;;;;;;;;;6.75;6.00;;;;;;;;5140377;27;8772;-77
2022/06/12 15:56:41;;;;;;;;;6.00;6.00;;;;;;;;5120486;27;11818;-79
2022/06/12 15:59:07;;;;;;;;;5.33;5.33;;;;;;;;5126362;27;8815;-79
2022/06/12 16:01:32;;;;;;;;;7.00;5.33;;;;;;;;5129667;27;11264;-81
2022/06/12 16:03:58;;;;;;;;;6.33;6.33;;;;;;;;5128841;27;9514;-80
2022/06/12 16:06:23;;;;;;;;;7.00;7.00;;;;;;;;5125453;27;10954;-83
2022/06/12 16:08:49;;;;;;;;;7.00;6.00;;;;;;;;5129292;27;11305;-76
2022/06/12 16:11:14;;;;;;;;;6.00;6.00;;;;;;;;5137330;27;9509;-77
2022/06/12 16:13:40;;;;;;;;;7.33;6.00;;;;;;;;5140090;27;11511;-79
2022/06/12 16:16:05;;;;;;;;;6.00;6.00;;;;;;;;5138193;27;9912;-76
2022/06/12 16:18:30;;;;;;;;;5.00;5.00;;;;;;;;5138486;27;8972;-75
2022/06/12 16:20:56;;;;;;;;;6.67;6.00;;;;;;;;5139785;27;8858;-76
2022/06/12 16:23:21;;;;;;;;;5.67;5.67;;;;;;;;5138285;27;10629;-76
2022/06/12 16:25:49;;;;;;;;;6.67;6.67;;;;;;;;5139850;27;11452;-78
2022/06/12 16:28:16;;;;;;;;;15.00;14.25;;;;;;;;5138831;27;8881;-85
2022/06/12 16:30:45;;;;;;;;;10.25;9.00;;;;;;;;5139384;27;23754;-77
2022/06/12 16:33:15;;;;;;;;;5.50;5.50;;;;;;;;5137940;27;21549;-75
2022/06/12 16:35:41;;;;;;;;;4.25;4.25;;;;;;;;5139129;27;22880;-75
2022/06/12 16:38:06;;;;;;;;;6.00;6.00;;;;;;;;5139412;27;11386;-76
2022/06/12 16:40:32;;;;;;;;;6.00;6.00;;;;;;;;5135461;27;11607;-74
2022/06/12 16:42:58;;;;;;;;;7.00;7.00;;;;;;;;5139943;27;8788;-75
2022/06/12 16:45:24;;;;;;;;;6.00;6.00;;;;;;;;5140196;27;9616;-75
2022/06/12 16:47:49;;;;;;;;;7.33;6.33;;;;;;;;5137873;27;10475;-75
2022/06/12 16:50:14;;;;;;;;;6.67;6.67;;;;;;;;5138094;27;12018;-75
2022/06/12 16:52:40;;;;;;;;;7.00;7.00;;;;;;;;5138218;27;12790;-75
2022/06/12 16:55:06;;;;;;;;;8.00;7.00;;;;;;;;5139393;27;11324;-74
2022/06/12 16:57:35;;;;;;;;;61.25;44.50;;;;;;;;5139051;27;8952;-72
2022/06/12 17:00:23;;;;;;;;;8.67;7.00;;;;;;;;5101305;27;1401998;-74
2022/06/12 17:02:48;;;;;;;;;6.00;6.00;;;;;;;;5135127;27;22171;-77
2022/06/12 17:05:14;;;;;;;;;4.00;3.00;;;;;;;;5148366;27;10518;-75
2022/06/12 17:07:41;;;;;;;;;6.00;5.75;;;;;;;;5157121;27;8785;-73
2022/06/12 17:10:08;;;;;;;;;8.00;7.50;;;;;;;;5156799;27;11385;-74
2022/06/12 17:12:35;;;;;;;;;5.75;5.75;;;;;;;;5156674;27;12836;-72
2022/06/12 17:15:02;;;;;;;;;6.25;5.50;;;;;;;;5157280;27;11377;-74
2022/06/12 17:17:27;;;;;;;;;7.50;5.75;;;;;;;;5156984;27;11367;-74
2022/06/12 17:22:37;;;;;;;;;4.00;4.00;;;;;;;;5156409;27;11313;-79
2022/06/12 17:25:04;;;;;;;;;4.00;4.00;;;;;;;;5144872;27;11450;-80
2022/06/12 17:27:31;;;;;;;;;6.00;6.00;;;;;;;;5143643;27;10135;-79
2022/06/12 17:29:57;;;;;;;;;4.50;4.25;;;;;;;;5146139;27;9205;-76
2022/06/12 17:32:23;;;;;;;;;7.33;5.67;;;;;;;;5127315;27;13384;-76
2022/06/12 17:34:57;;;;;;;;;7.67;4.67;;;;;;;;5146563;27;12525;-79
2022/06/12 17:37:29;;;;;;;;;9.50;9.50;;;;;;;;5143355;27;10142;-77
2022/06/12 17:39:54;;;;;;;;;6.00;6.00;;;;;;;;5107843;27;15207;-76
2022/06/12 17:42:20;;;;;;;;;23.67;21.00;;;;;;;;5124857;27;13867;-70
2022/06/12 17:44:46;;;;;;;;;29.67;28.67;;;;;;;;5124447;27;24943;-67
2022/06/12 17:47:11;;;;;;;;;16.67;13.33;;;;;;;;5126423;27;14989;-68
2022/06/12 17:49:36;;;;;;;;;37.25;34.00;;;;;;;;5148433;27;13763;-69
2022/06/12 17:52:03;;;;;;;;;29.00;28.00;;;;;;;;5130579;27;15290;-69
2022/06/12 17:54:28;;;;;;;;;29.00;26.67;;;;;;;;5143184;27;12335;-71
2022/06/12 17:56:54;;;;;;;;;45.00;36.00;;;;;;;;5144409;27;10009;-68
2022/06/12 17:59:21;;;;;;;;;39.00;34.75;;;;;;;;5144621;27;13355;-70
2022/06/12 18:01:47;;;;;;;;;28.50;26.00;;;;;;;;5128818;27;14730;-70
2022/06/12 18:04:13;;;;;;;;;23.67;23.67;;;;;;;;5144393;27;13581;-71
2022/06/12 18:06:38;;;;;;;;;10.33;10.33;;;;;;;;5146044;27;11549;-71
2022/06/12 18:09:05;;;;;;;;;19.67;18.00;;;;;;;;5142465;27;13405;-70
2022/06/12 18:11:30;;;;;;;;;5.25;5.25;;;;;;;;5131467;27;11793;-70
2022/06/12 18:13:56;;;;;;;;;10.00;8.33;;;;;;;;5130789;27;22312;-69
2022/06/12 18:19:08;;;;;;;;;12.67;11.33;;;;;;;;5131733;27;22423;-69
2022/06/12 18:21:41;;;;;;;;;8.00;8.00;;;;;;;;5129448;27;22518;-70
2022/06/12 18:24:07;;;;;;;;;10.00;9.75;;;;;;;;5128373;27;22484;-69
2022/06/12 18:26:33;;;;;;;;;10.00;6.00;;;;;;;;5141519;27;21387;-68
2022/06/12 18:28:59;;;;;;;;;5.25;5.25;;;;;;;;5140951;27;8794;-70
2022/06/12 18:31:24;;;;;;;;;6.00;6.00;;;;;;;;5132337;27;22836;-68
2022/06/12 18:33:49;;;;;;;;;7.00;5.00;;;;;;;;5130735;27;12095;-68
2022/06/12 18:36:16;;;;;;;;;9.00;6.67;;;;;;;;5128650;27;8799;-68
2022/06/12 18:38:41;;;;;;;;;12.67;12.00;;;;;;;;5113394;27;13583;-68
2022/06/12 18:41:06;;;;;;;;;6.00;6.00;;;;;;;;5130936;27;22230;-68
2022/06/12 18:43:32;;;;;;;;;12.00;12.00;;;;;;;;5130408;27;22248;-67
2022/06/12 18:45:57;;;;;;;;;15.33;14.33;;;;;;;;5129528;27;22759;-68
2022/06/12 18:48:23;;;;;;;;;13.33;13.33;;;;;;;;5131076;27;11529;-68
2022/06/12 18:50:48;;;;;;;;;19.00;18.00;;;;;;;;5132031;27;8902;-68
2022/06/12 18:53:14;;;;;;;;;7.00;4.67;;;;;;;;5128358;27;11676;-69
2022/06/12 18:55:39;;;;;;;;;6.00;5.00;;;;;;;;5132622;27;22244;-69
2022/06/12 18:58:05;;;;;;;;;8.67;8.67;;;;;;;;5135117;27;11362;-69
2022/06/12 19:00:31;;;;;;;;;12.33;11.00;;;;;;;;5133707;27;11325;-68
2022/06/12 19:02:57;;;;;;;;;7.00;7.00;;;;;;;;5109996;27;25723;-73
2022/06/12 19:05:22;;;;;;;;;9.33;8.67;;;;;;;;5132921;27;22309;-71
2022/06/12 19:07:48;;;;;;;;;11.00;8.00;;;;;;;;5133839;27;11461;-69
2022/06/12 19:10:14;;;;;;;;;11.00;10.00;;;;;;;;5120791;27;21706;-69
2022/06/12 19:12:39;;;;;;;;;15.67;13.00;;;;;;;;5126136;27;16340;-70
2022/06/12 19:15:05;;;;;;;;;7.00;7.00;;;;;;;;5111374;27;11332;-74
2022/06/12 19:17:31;;;;;;;;;9.00;9.00;;;;;;;;5127291;27;22652;-69
2022/06/12 19:19:57;;;;;;;;;21.00;18.67;;;;;;;;5135094;27;8926;-70
2022/06/12 19:22:22;;;;;;;;;16.33;14.67;;;;;;;;5131890;27;22458;-69
2022/06/12 19:24:48;;;;;;;;;19.00;15.67;;;;;;;;5130062;27;12543;-71
2022/06/12 19:27:13;;;;;;;;;17.00;16.00;;;;;;;;5133295;27;10871;-71
2022/06/12 19:29:39;;;;;;;;;15.00;14.33;;;;;;;;5130693;27;11433;-70
2022/06/12 19:32:04;;;;;;;;;17.67;14.00;;;;;;;;5113826;27;13809;-71
2022/06/12 19:34:32;;;;;;;;;3.33;3.33;;;;;;;;5132980;27;11348;-70
2022/06/12 19:36:58;;;;;;;;;3.50;2.00;;;;;;;;5130737;27;22606;-74
2022/06/12 19:39:23;;;;;;;;;3.75;3.00;;;;;;;;5133363;27;10651;-75
2022/06/12 19:41:50;;;;;;;;;2.67;2.67;;;;;;;;5114855;27;11880;-74
2022/06/12 19:44:16;;;;;;;;;3.25;3.00;;;;;;;;5120809;27;11615;-73
2022/06/12 19:46:41;;;;;;;;;3.00;3.00;;;;;;;;5139818;27;11379;-73
2022/06/12 19:49:07;;;;;;;;;1.00;1.00;;;;;;;;5140497;27;8790;-79
2022/06/12 19:51:33;;;;;;;;;0.33;0.33;;;;;;;;5142583;27;8786;-80
2022/06/12 19:53:58;;;;;;;;;2.00;2.00;;;;;;;;5141869;27;11395;-79
2022/06/12 19:56:23;;;;;;;;;1.00;1.00;;;;;;;;5140375;27;12462;-80
2022/06/12 19:58:49;;;;;;;;;1.00;1.00;;;;;;;;5121036;27;10696;-79
2022/06/12 20:01:14;;;;;;;;;0.33;0.33;;;;;;;;5140746;27;8790;-79
2022/06/12 20:03:39;;;;;;;;;1.00;1.00;;;;;;;;5141252;27;12506;-78
2022/06/12 20:08:51;;;;;;;;;1.00;1.00;;;;;;;;5140393;27;8762;-80
2022/06/12 20:11:16;;;;;;;;;0.25;0.25;;;;;;;;5140793;27;8860;-80
2022/06/12 20:13:42;;;;;;;;;2.00;1.33;;;;;;;;5140927;27;11291;-80
2022/06/12 20:16:07;;;;;;;;;2.00;1.00;;;;;;;;5140237;27;11544;-81
2022/06/12 20:18:33;;;;;;;;;0.00;0.00;;;;;;;;5140970;27;8810;-79
2022/06/12 20:21:00;;;;;;;;;0.00;0.00;;;;;;;;5140399;27;8770;-79
2022/06/12 20:23:25;;;;;;;;;1.00;0.00;;;;;;;;5131040;27;8878;-79
2022/06/12 20:25:52;;;;;;;;;1.00;0.00;;;;;;;;5136426;27;8786;-79
2022/06/12 20:28:18;;;;;;;;;0.75;0.75;;;;;;;;5140417;27;8837;-80
2022/06/12 20:30:43;;;;;;;;;1.00;1.00;;;;;;;;5140786;27;11308;-81
2022/06/12 20:33:08;;;;;;;;;2.00;1.00;;;;;;;;5139607;27;11387;-79
2022/06/12 20:35:34;;;;;;;;;0.00;0.00;;;;;;;;5140207;27;8790;-77
2022/06/12 20:38:00;;;;;;;;;1.00;1.00;;;;;;;;5140700;27;9680;-78
2022/06/12 20:40:25;;;;;;;;;1.00;1.00;;;;;;;;5137332;27;8942;-77
2022/06/12 20:42:51;;;;;;;;;1.00;1.00;;;;;;;;5119919;28;9497;-77
2022/06/12 20:45:16;;;;;;;;;1.00;1.00;;;;;;;;5120334;28;8800;-82
2022/06/12 20:47:41;;;;;;;;;1.67;1.00;;;;;;;;5120323;28;8822;-86
2022/06/12 20:50:07;;;;;;;;;0.67;0.67;;;;;;;;5101730;28;9524;-81
2022/06/12 20:52:32;;;;;;;;;1.00;1.00;;;;;;;;5120287;28;11450;-84
2022/06/12 20:54:58;;;;;;;;;1.00;1.00;;;;;;;;5122489;27;11284;-82
2022/06/12 20:57:26;;;;;;;;;0.33;0.33;;;;;;;;5120347;28;8926;-81
2022/06/12 20:59:51;;;;;;;;;0.25;0.25;;;;;;;;5119471;28;11716;-82
2022/06/12 21:02:17;;;;;;;;;1.00;0.00;;;;;;;;5119791;28;8796;-82
2022/06/12 21:04:45;;;;;;;;;1.00;1.00;;;;;;;;5100698;28;11933;-83
2022/06/12 21:07:11;;;;;;;;;1.00;1.00;;;;;;;;5120257;28;10224;-82
2022/06/12 21:09:37;;;;;;;;;0.25;0.25;;;;;;;;5101365;28;8889;-83
2022/06/12 21:12:02;;;;;;;;;0.00;0.00;;;;;;;;5119896;28;11368;-83
2022/06/12 21:14:28;;;;;;;;;1.00;1.00;;;;;;;;5120378;28;9425;-85
2022/06/12 21:16:53;;;;;;;;;1.00;1.00;;;;;;;;5119398;28;8935;-80
2022/06/12 21:19:19;;;;;;;;;1.00;1.00;;;;;;;;5100312;28;9634;-80
2022/06/12 21:21:44;;;;;;;;;1.00;1.00;;;;;;;;5118695;28;8785;-79
2022/06/12 21:24:10;;;;;;;;;1.00;1.00;;;;;;;;5119180;28;8772;-79
2022/06/12 21:26:35;;;;;;;;;1.00;1.00;;;;;;;;5119271;28;8800;-79
2022/06/12 21:29:00;;;;;;;;;2.00;2.00;;;;;;;;5118950;28;8823;-79
2022/06/12 21:31:26;;;;;;;;;4.00;1.67;;;;;;;;5119173;28;9571;-79
2022/06/12 21:33:51;;;;;;;;;2.67;2.67;;;;;;;;5118665;28;11495;-80
2022/06/12 21:36:17;;;;;;;;;1.67;1.67;;;;;;;;5118671;28;10259;-80
2022/06/12 21:38:42;;;;;;;;;4.00;2.00;;;;;;;;5099829;28;10566;-80
2022/06/12 21:41:08;;;;;;;;;2.00;2.00;;;;;;;;5118303;28;11311;-80
2022/06/12 21:43:34;;;;;;;;;3.00;1.00;;;;;;;;5118037;28;8881;-80
2022/06/12 21:46:00;;;;;;;;;2.00;1.00;;;;;;;;5120272;27;8800;-80
2022/06/12 21:48:25;;;;;;;;;2.00;2.00;;;;;;;;5122607;28;8796;-79
2022/06/12 21:50:50;;;;;;;;;2.33;1.67;;;;;;;;5122751;28;10787;-80
2022/06/12 21:55:59;;;;;;;;;2.00;2.00;;;;;;;;5119603;28;8780;-79
2022/06/12 21:58:25;;;;;;;;;2.00;2.00;;;;;;;;5120982;28;8985;-80
2022/06/12 22:00:50;;;;;;;;;2.00;2.00;;;;;;;;5121573;28;8768;-79
2022/06/12 22:03:16;;;;;;;;;3.00;3.00;;;;;;;;5121324;28;8796;-79
2022/06/12 22:05:41;;;;;;;;;3.33;3.33;;;;;;;;5122234;28;9551;-79
2022/06/12 22:08:06;;;;;;;;;4.00;4.00;;;;;;;;5121295;28;8919;-75
2022/06/12 22:10:32;;;;;;;;;5.67;5.00;;;;;;;;5121709;28;11293;-74
2022/06/12 22:12:57;;;;;;;;;4.67;4.00;;;;;;;;5121622;28;10560;-74
2022/06/12 22:15:23;;;;;;;;;4.00;4.00;;;;;;;;5121582;28;8796;-74
2022/06/12 22:17:49;;;;;;;;;5.00;3.00;;;;;;;;5121504;28;8789;-74
2022/06/12 22:20:15;;;;;;;;;3.33;3.33;;;;;;;;5120949;28;8965;-75
2022/06/12 22:22:40;;;;;;;;;8.67;6.00;;;;;;;;5120751;28;11755;-75
2022/06/12 22:25:07;;;;;;;;;7.00;4.00;;;;;;;;5121233;28;11469;-74
2022/06/12 22:27:32;;;;;;;;;5.00;5.00;;;;;;;;5121321;28;10580;-84
2022/06/12 22:29:57;;;;;;;;;3.00;3.00;;;;;;;;5121509;28;8925;-76
2022/06/12 22:32:23;;;;;;;;;4.00;3.00;;;;;;;;5121387;28;8784;-74
2022/06/12 22:34:48;;;;;;;;;3.00;3.00;;;;;;;;5121658;28;8780;-75
2022/06/12 22:37:15;;;;;;;;;4.33;4.00;;;;;;;;5121723;28;8768;-75
2022/06/12 22:39:41;;;;;;;;;3.00;3.00;;;;;;;;5121991;28;10530;-75
2022/06/12 22:42:06;;;;;;;;;4.00;4.00;;;;;;;;5121775;28;10786;-75
2022/06/12 22:44:31;;;;;;;;;2.00;2.00;;;;;;;;5121658;28;9172;-76
2022/06/12 22:46:57;;;;;;;;;3.00;3.00;;;;;;;;5122057;28;8776;-75
2022/06/12 22:49:22;;;;;;;;;3.33;3.33;;;;;;;;5121501;28;8792;-75
2022/06/12 22:51:47;;;;;;;;;4.33;4.00;;;;;;;;5121315;28;8898;-75
2022/06/12 22:54:12;;;;;;;;;4.33;3.33;;;;;;;;5121451;28;11309;-75
2022/06/12 22:56:38;;;;;;;;;2.00;2.00;;;;;;;;5120778;28;9567;-75
2022/06/12 22:59:03;;;;;;;;;3.33;3.33;;;;;;;;5120385;28;11353;-75
2022/06/12 23:01:29;;;;;;;;;3.00;3.00;;;;;;;;5120809;28;11289;-74
2022/06/12 23:03:55;;;;;;;;;3.33;3.33;;;;;;;;5120806;28;8752;-74
2022/06/12 23:06:21;;;;;;;;;3.67;3.67;;;;;;;;5121158;28;9040;-74
2022/06/12 23:08:46;;;;;;;;;4.00;4.00;;;;;;;;5121226;28;8780;-74
2022/06/12 23:11:12;;;;;;;;;5.00;4.00;;;;;;;;5121189;28;11309;-74
2022/06/12 23:13:37;;;;;;;;;3.00;3.00;;;;;;;;5121015;28;8776;-74
2022/06/12 23:16:04;;;;;;;;;3.00;3.00;;;;;;;;5120723;28;8883;-74
2022/06/12 23:18:29;;;;;;;;;5.00;3.00;;;;;;;;5120677;28;8861;-74
2022/06/12 23:20:54;;;;;;;;;2.00;2.00;;;;;;;;5120295;28;9122;-74
2022/06/12 23:23:29;;;;;;;;;3.00;3.00;;;;;;;;5121036;28;8795;-74
2022/06/12 23:26:05;;;;;;;;;3.00;3.00;;;;;;;;5120556;28;8849;-74
2022/06/12 23:28:33;;;;;;;;;2.33;2.33;;;;;;;;5121089;28;9148;-74
2022/06/12 23:30:58;;;;;;;;;3.33;3.00;;;;;;;;5120693;28;11441;-75
2022/06/12 23:33:24;;;;;;;;;3.33;2.33;;;;;;;;5120183;28;11358;-74
2022/06/12 23:35:51;;;;;;;;;3.00;3.00;;;;;;;;5121259;28;8868;-74
2022/06/12 23:38:17;;;;;;;;;3.67;3.00;;;;;;;;5120546;28;10370;-74
2022/06/12 23:40:43;;;;;;;;;2.00;2.00;;;;;;;;5138242;27;9293;-75
2022/06/12 23:43:08;;;;;;;;;4.00;3.00;;;;;;;;5140667;27;10445;-75
2022/06/12 23:45:34;;;;;;;;;2.00;2.00;;;;;;;;5141064;27;8826;-75
2022/06/12 23:48:00;;;;;;;;;2.00;2.00;;;;;;;;5141420;27;8794;-74
2022/06/12 23:50:25;;;;;;;;;2.00;2.00;;;;;;;;5141583;27;8785;-74
2022/06/12 23:52:51;;;;;;;;;1.00;1.00;;;;;;;;5141522;27;9123;-75
2022/06/12 23:55:16;;;;;;;;;3.00;1.33;;;;;;;;5140786;27;8827;-74
2022/06/12 23:57:42;;;;;;;;;2.00;2.00;;;;;;;;5141086;27;12514;-74
